createdAt,value
2019-02-08T00:04:06.420Z,70.74
2019-02-08T00:09:13.962Z,70.80
2019-02-08T00:14:19.619Z,69.66
2019-02-08T00:19:25.308Z,69.84
2019-02-08T00:24:30.854Z,70.02
2019-02-08T00:29:37.295Z,70.37
2019-02-08T00:34:42.962Z,71.38
2019-02-08T00:39:48.765Z,70.05
2019-02-08T00:44:54.560Z,70.21
2019-02-08T00:50:00.193Z,69.82
2019-02-08T00:55:06.609Z,70.43
2019-02-08T01:00:14.212Z,69.52
2019-02-08T01:05:21.066Z,69.22
2019-02-08T01:10:28.735Z,68.04
2019-02-08T01:15:35.606Z,68.38
2019-02-08T01:20:41.089Z,67.94
2019-02-08T01:25:46.891Z,67.93
2019-02-08T01:30:52.472Z,67.82
2019-02-08T01:35:58.474Z,67.49
2019-02-08T01:41:03.901Z,67.36
2019-02-08T01:46:11.927Z,66.85
2019-02-08T01:51:17.497Z,67.00
2019-02-08T01:56:23.058Z,67.41
2019-02-08T02:01:28.783Z,66.22
2019-02-08T02:06:34.595Z,65.79
2019-02-08T02:11:40.152Z,66.81
2019-02-08T02:16:45.837Z,66.54
2019-02-08T02:21:51.422Z,67.32
2019-02-08T02:26:57.395Z,67.32
2019-02-08T02:32:05.582Z,67.24
2019-02-08T02:37:11.655Z,66.73
2019-02-08T02:42:17.253Z,67.03
2019-02-08T02:47:23.413Z,67.21
2019-02-08T02:52:28.988Z,66.53
2019-02-08T02:57:34.601Z,67.33
2019-02-08T03:02:40.339Z,66.54
2019-02-08T03:07:46.179Z,66.63
2019-02-08T03:12:51.717Z,66.92
2019-02-08T03:17:57.690Z,66.89
2019-02-08T03:23:03.360Z,67.07
2019-02-08T03:28:10.240Z,66.42
2019-02-08T03:33:15.858Z,67.10
2019-02-08T03:38:21.911Z,66.39
2019-02-08T03:43:27.655Z,66.02
2019-02-08T03:48:34.402Z,66.16
2019-02-08T03:53:41.980Z,66.63
2019-02-08T03:58:47.557Z,66.49
2019-02-08T04:03:53.208Z,66.09
2019-02-08T04:08:58.992Z,66.60
2019-02-08T04:14:05.070Z,66.43
2019-02-08T04:19:10.639Z,66.37
2019-02-08T04:24:17.696Z,65.75
2019-02-08T04:29:23.441Z,65.72
2019-02-08T04:34:31.302Z,65.49
2019-02-08T04:39:36.917Z,65.15
2019-02-08T04:44:42.483Z,65.05
2019-02-08T04:49:48.070Z,64.52
2019-02-08T04:54:53.645Z,65.09
2019-02-08T04:59:59.263Z,64.16
2019-02-08T05:05:06.111Z,63.58
2019-02-08T05:10:12.438Z,63.89
2019-02-08T05:15:18.602Z,63.18
2019-02-08T05:20:27.245Z,64.29
2019-02-08T05:25:32.891Z,64.22
2019-02-08T05:30:38.923Z,64.00
2019-02-08T05:35:44.463Z,63.85
2019-02-08T05:40:50.352Z,63.91
2019-02-08T05:45:56.904Z,64.01
2019-02-08T05:51:02.601Z,64.62
2019-02-08T05:56:08.184Z,63.58
2019-02-08T06:01:14.037Z,64.50
2019-02-08T06:06:19.689Z,63.82
2019-02-08T06:11:25.751Z,64.21
2019-02-08T06:16:31.289Z,64.00
2019-02-08T06:21:37.149Z,65.22
2019-02-08T06:26:42.654Z,65.00
2019-02-08T06:31:48.390Z,64.71
2019-02-08T06:36:53.965Z,65.39
2019-02-08T06:42:01.728Z,65.50
2019-02-08T06:47:08.854Z,65.63
2019-02-08T06:52:14.375Z,65.02
2019-02-08T06:57:41.760Z,64.25
2019-02-08T07:03:06.227Z,64.03
2019-02-08T07:08:33.212Z,64.77
2019-02-08T07:14:03.661Z,63.57
2019-02-08T07:19:31.608Z,64.64
2019-02-08T07:24:58.708Z,63.80
2019-02-08T07:30:23.592Z,63.86
2019-02-08T07:35:55.900Z,64.27
2019-02-08T07:41:24.606Z,63.52
2019-02-08T07:46:59.210Z,63.27
2019-02-08T07:52:31.497Z,63.83
2019-02-08T07:57:47.106Z,62.32
2019-02-08T08:03:14.757Z,62.32
2019-02-08T08:08:42.646Z,60.39
2019-02-08T08:14:10.163Z,61.14
2019-02-08T08:19:35.183Z,60.88
2019-02-08T08:25:01.320Z,59.64
2019-02-08T08:30:22.700Z,59.64
2019-02-08T08:36:09.253Z,58.00
2019-02-08T08:41:51.401Z,57.50
2019-02-08T08:47:51.786Z,55.84
2019-02-08T08:53:24.656Z,56.05
2019-02-08T08:59:17.923Z,56.56
2019-02-08T09:05:00.028Z,55.78
2019-02-08T09:10:53.292Z,56.09
2019-02-08T09:16:29.805Z,55.04
2019-02-08T09:22:11.633Z,55.12
2019-02-08T09:27:59.908Z,54.07
2019-02-08T09:33:37.971Z,54.58
2019-02-08T09:39:30.717Z,55.36
2019-02-08T09:45:18.077Z,54.78
2019-02-08T09:51:02.102Z,54.45
2019-02-08T09:56:50.921Z,55.49
2019-02-08T10:02:43.236Z,54.30
2019-02-08T10:08:18.450Z,53.61
2019-02-08T10:14:01.507Z,53.36
2019-02-08T10:19:38.360Z,54.00
2019-02-08T10:25:52.014Z,54.50
2019-02-08T10:31:26.291Z,52.79
2019-02-08T10:37:22.266Z,53.45
2019-02-08T10:43:17.340Z,53.68
2019-02-08T10:49:18.072Z,54.60
2019-02-08T10:54:59.262Z,53.60
2019-02-08T11:00:32.093Z,53.10
2019-02-08T11:06:32.838Z,51.46
2019-02-08T11:12:13.944Z,53.99
2019-02-08T11:18:09.624Z,52.84
2019-02-08T11:23:15.410Z,53.18
2019-02-08T11:28:20.935Z,52.99
2019-02-08T11:33:26.517Z,52.10
2019-02-08T11:38:32.128Z,51.77
2019-02-08T11:43:39.335Z,50.52
2019-02-08T11:48:45.227Z,50.86
2019-02-08T11:53:51.800Z,50.88
2019-02-08T11:58:57.460Z,51.45
2019-02-08T12:04:03.285Z,50.85
2019-02-08T12:09:14.464Z,49.62
2019-02-08T12:14:20.748Z,50.37
2019-02-08T12:19:26.453Z,50.63
2019-02-08T12:24:32.115Z,49.47
2019-02-08T12:29:37.662Z,49.67
2019-02-08T12:34:43.327Z,49.85
2019-02-08T12:39:49.243Z,48.95
2019-02-08T12:44:54.814Z,49.92
2019-02-08T12:50:00.781Z,48.74
2019-02-08T12:55:07.768Z,50.83
2019-02-08T13:00:16.312Z,49.80
2019-02-08T13:05:22.642Z,49.77
2019-02-08T13:10:28.913Z,49.27
2019-02-08T13:15:37.576Z,48.93
2019-02-08T13:20:44.165Z,49.01
2019-02-08T13:25:49.839Z,48.63
2019-02-08T13:30:55.445Z,49.11
2019-02-08T13:36:01.047Z,48.93
2019-02-08T13:41:07.552Z,48.12
2019-02-08T13:46:13.086Z,47.53
2019-02-08T13:51:19.871Z,47.18
2019-02-08T13:56:27.700Z,47.63
2019-02-08T14:01:33.399Z,47.37
2019-02-08T14:06:39.384Z,47.82
2019-02-08T14:11:45.447Z,46.76
2019-02-08T14:16:51.115Z,46.95
2019-02-08T14:21:57.202Z,46.76
2019-02-08T14:27:08.472Z,46.69
2019-02-08T14:32:13.266Z,47.23
2019-02-08T14:37:19.337Z,45.99
2019-02-08T14:42:24.937Z,45.62
2019-02-08T14:47:30.540Z,48.44
2019-02-08T14:52:36.415Z,48.45
2019-02-08T14:57:42.324Z,49.53
2019-02-08T15:02:47.947Z,49.63
2019-02-08T15:07:53.706Z,49.58
2019-02-08T15:13:00.366Z,49.72
2019-02-08T15:18:07.332Z,51.21
2019-02-08T15:23:13.480Z,51.16
2019-02-08T15:28:19.246Z,51.95
2019-02-08T15:33:28.063Z,52.22
2019-02-08T15:38:33.781Z,52.08
2019-02-08T15:43:39.556Z,54.06
2019-02-08T15:48:45.341Z,53.93
2019-02-08T15:53:53.278Z,54.46
2019-02-08T15:58:59.159Z,55.32
2019-02-08T16:04:04.934Z,55.61
2019-02-08T16:09:13.711Z,55.48
2019-02-08T16:14:21.561Z,57.15
2019-02-08T16:19:29.732Z,55.84
2019-02-08T16:24:36.041Z,57.96
2019-02-08T16:29:41.913Z,58.64
2019-02-08T16:34:47.787Z,58.27
2019-02-08T16:39:54.029Z,57.71
2019-02-08T16:45:01.576Z,57.75
2019-02-08T16:50:09.322Z,57.29
2019-02-08T16:55:16.971Z,58.04
2019-02-08T17:00:27.475Z,58.07
2019-02-08T17:05:35.451Z,59.53
2019-02-08T17:10:41.348Z,58.67
2019-02-08T17:15:47.963Z,59.33
2019-02-08T17:20:53.877Z,59.64
2019-02-08T17:25:59.742Z,61.03
2019-02-08T17:31:06.798Z,60.50
2019-02-08T17:36:16.474Z,60.60
2019-02-08T17:41:23.665Z,61.32
2019-02-08T17:46:32.737Z,61.32
2019-02-08T17:51:38.960Z,61.36
2019-02-08T17:56:44.776Z,62.24
2019-02-08T18:01:50.595Z,62.24
2019-02-08T18:06:56.790Z,63.62
2019-02-08T18:12:06.268Z,62.55
2019-02-08T18:17:12.144Z,61.77
2019-02-08T18:22:17.896Z,62.11
2019-02-08T18:27:24.026Z,63.19
2019-02-08T18:32:30.996Z,63.14
2019-02-08T18:37:37.196Z,63.81
2019-02-08T18:42:43.570Z,62.96
2019-02-08T18:47:50.039Z,63.69
2019-02-08T18:52:56.999Z,63.47
2019-02-08T18:58:03.420Z,63.47
2019-02-08T19:03:09.769Z,63.22
2019-02-08T19:08:16.749Z,63.77
2019-02-08T19:13:23.238Z,64.78
2019-02-08T19:18:29.563Z,64.92
2019-02-08T19:23:40.502Z,65.27
2019-02-08T19:28:48.341Z,65.14
2019-02-08T19:33:57.372Z,65.09
2019-02-08T19:39:06.476Z,65.25
2019-02-08T19:44:13.163Z,65.09
2019-02-08T19:49:19.944Z,64.69
2019-02-08T19:54:26.851Z,65.14
2019-02-08T19:59:37.606Z,66.06
2019-02-08T20:04:45.791Z,66.13
2019-02-08T20:09:56.936Z,65.78
2019-02-08T20:15:06.297Z,66.21
2019-02-08T20:20:14.998Z,65.99
2019-02-08T20:25:26.652Z,67.04
2019-02-08T20:30:35.943Z,66.30
2019-02-08T20:35:43.166Z,66.01
2019-02-08T20:40:52.239Z,66.30
2019-02-08T20:46:08.557Z,65.62
2019-02-08T20:51:17.306Z,65.14
2019-02-08T20:56:23.442Z,65.71
2019-02-08T21:01:31.045Z,66.14
2019-02-08T21:06:40.953Z,66.36
2019-02-08T21:11:50.113Z,65.57
2019-02-08T21:17:02.061Z,64.11
2019-02-08T21:22:10.071Z,64.31
2019-02-08T21:27:15.859Z,63.59
2019-02-08T21:32:23.960Z,63.46
2019-02-08T21:37:30.139Z,63.58
2019-02-08T21:42:38.534Z,62.37
2019-02-08T21:47:46.323Z,61.26
2019-02-08T21:52:52.344Z,61.11
2019-02-08T21:58:01.161Z,60.44
2019-02-08T22:03:09.528Z,59.21
2019-02-08T22:08:15.657Z,58.79
2019-02-08T22:13:21.371Z,58.41
2019-02-08T22:18:28.765Z,57.57
2019-02-08T22:23:34.751Z,56.86
2019-02-08T22:28:40.682Z,55.97
2019-02-08T22:33:46.841Z,55.97
2019-02-08T22:38:55.252Z,55.23
2019-02-08T22:44:00.925Z,55.23
2019-02-08T22:49:08.565Z,52.99
2019-02-08T22:54:14.317Z,52.99
2019-02-08T22:59:22.226Z,52.47
2019-02-08T23:04:27.184Z,52.47
2019-02-08T23:09:32.713Z,53.16
2019-02-08T23:14:38.342Z,52.61
2019-02-08T23:19:44.488Z,51.74
2019-02-08T23:24:50.266Z,51.68
2019-02-08T23:29:57.389Z,51.39
2019-02-08T23:35:05.447Z,51.00
2019-02-08T23:40:11.715Z,51.19
2019-02-08T23:45:18.032Z,50.23
2019-02-08T23:51:35.847Z,49.72
2019-02-08T23:56:41.496Z,50.63
